createdAt,value
2019-03-01T00:01:31.602Z,7.13
2019-03-01T00:04:05.053Z,8.40
2019-03-01T00:07:12.330Z,7.40
2019-03-01T00:10:19.599Z,7.57
2019-03-01T00:13:27.234Z,5.83
2019-03-01T00:16:20.503Z,7.67
2019-03-01T00:19:12.654Z,7.17
2019-03-01T00:22:16.211Z,8.50
2019-03-01T00:25:23.450Z,6.33
2019-03-01T00:39:32.049Z,6.50
2019-03-01T00:42:26.270Z,8.00
2019-03-01T00:44:55.481Z,6.13
2019-03-01T00:47:24.969Z,9.37
2019-03-01T00:49:54.234Z,4.03
2019-03-01T00:52:23.753Z,6.50
2019-03-01T00:54:53.054Z,5.97
2019-03-01T00:57:22.251Z,5.30
2019-03-01T00:59:51.756Z,7.83
2019-03-01T01:02:20.986Z,5.53
2019-03-01T01:04:50.255Z,5.80
2019-03-01T01:07:19.455Z,5.90
2019-03-01T01:09:48.688Z,6.40
2019-03-01T01:15:07.003Z,7.10
2019-03-01T01:17:36.256Z,5.67
2019-03-01T01:20:05.892Z,3.53
2019-03-01T01:22:35.092Z,4.57
2019-03-01T01:27:59.828Z,5.43
2019-03-01T01:30:29.129Z,4.93
2019-03-01T01:32:58.330Z,6.00
2019-03-01T01:36:08.906Z,7.10
2019-03-01T01:38:38.403Z,3.80
2019-03-01T01:41:07.664Z,8.93
2019-03-01T01:43:37.708Z,6.40
2019-03-01T01:46:06.921Z,5.17
2019-03-01T01:48:36.155Z,7.50
2019-03-01T01:51:05.376Z,6.53
2019-03-01T01:53:34.570Z,6.33
2019-03-01T01:56:03.854Z,5.97
2019-03-01T01:58:33.062Z,6.37
2019-03-01T02:01:02.328Z,9.03
2019-03-01T02:03:31.851Z,3.47
2019-03-01T02:06:01.685Z,5.87
2019-03-01T02:08:30.993Z,5.37
2019-03-01T02:11:00.227Z,10.53
2019-03-01T02:13:29.429Z,7.60
2019-03-01T02:15:58.732Z,10.60
2019-03-01T02:18:28.652Z,9.93
2019-03-01T02:20:58.213Z,6.97
2019-03-01T02:23:27.464Z,8.90
2019-03-01T02:25:57.004Z,8.17
2019-03-01T02:28:26.232Z,7.07
2019-03-01T02:30:55.994Z,11.10
2019-03-01T02:33:25.232Z,7.80
2019-03-01T02:35:54.472Z,7.00
2019-03-01T02:38:23.674Z,8.70
2019-03-01T02:40:52.936Z,6.27
2019-03-01T02:43:22.133Z,8.47
2019-03-01T02:45:51.368Z,7.13
2019-03-01T02:48:20.626Z,6.53
2019-03-01T02:50:49.913Z,7.23
2019-03-01T02:53:19.127Z,8.97
2019-03-01T02:55:48.336Z,7.37
2019-03-01T02:58:17.870Z,5.53
2019-03-01T03:00:47.097Z,9.40
2019-03-01T03:03:16.656Z,7.17
2019-03-01T03:06:04.865Z,6.10
2019-03-01T03:08:34.876Z,6.93
2019-03-01T03:11:04.109Z,7.27
2019-03-01T03:13:33.713Z,7.77
2019-03-01T03:16:02.913Z,6.33
2019-03-01T03:18:32.204Z,5.00
2019-03-01T03:21:01.427Z,4.10
2019-03-01T03:23:30.650Z,4.07
2019-03-01T03:26:00.236Z,5.23
2019-03-01T03:28:30.073Z,5.70
2019-03-01T03:30:59.392Z,4.90
2019-03-01T03:33:29.183Z,5.20
2019-03-01T03:35:58.367Z,6.07
2019-03-01T03:38:27.693Z,4.60
2019-03-01T03:40:56.987Z,6.07
2019-03-01T03:43:26.319Z,7.57
2019-03-01T03:45:55.612Z,6.80
2019-03-01T03:48:24.991Z,4.93
2019-03-01T03:53:45.054Z,5.97
2019-03-01T03:56:14.259Z,7.30
2019-03-01T03:58:43.503Z,4.77
2019-03-01T04:01:12.996Z,4.93
2019-03-01T04:03:42.251Z,6.10
2019-03-01T04:06:11.451Z,7.30
2019-03-01T04:08:40.958Z,5.67
2019-03-01T04:11:10.151Z,5.57
2019-03-01T04:13:39.488Z,6.80
2019-03-01T04:16:08.694Z,5.23
2019-03-01T04:18:37.918Z,5.20
2019-03-01T04:21:07.123Z,5.17
2019-03-01T04:23:36.592Z,5.80
2019-03-01T04:26:05.805Z,5.60
2019-03-01T04:28:35.032Z,4.17
2019-03-01T04:31:04.889Z,3.63
2019-03-01T04:33:34.122Z,3.50
2019-03-01T04:36:04.359Z,3.87
2019-03-01T04:38:34.042Z,2.27
2019-03-01T04:41:04.495Z,2.47
2019-03-01T04:54:46.919Z,3.00
2019-03-01T04:57:17.668Z,1.87
2019-03-01T05:26:51.515Z,4.83
2019-03-01T05:29:20.955Z,5.73
2019-03-01T05:31:50.414Z,4.97
2019-03-01T05:34:20.898Z,6.20
2019-03-01T05:36:50.690Z,5.43
2019-03-01T05:39:20.362Z,5.70
2019-03-01T05:41:49.640Z,5.73
2019-03-01T05:44:18.952Z,5.70
2019-03-01T05:46:48.361Z,5.73
2019-03-01T05:49:18.186Z,7.03
2019-03-01T05:51:47.433Z,5.33
2019-03-01T05:54:16.703Z,6.83
2019-03-01T05:56:45.954Z,7.10
2019-03-01T05:59:24.036Z,8.03
2019-03-01T06:02:31.635Z,8.53
2019-03-01T06:05:21.178Z,8.77
2019-03-01T06:24:35.470Z,15.90
2019-03-01T06:36:07.226Z,20.90
2019-03-01T06:50:27.246Z,18.77
2019-03-01T06:52:56.757Z,22.67
2019-03-01T06:58:20.674Z,21.80
2019-03-01T07:03:42.557Z,21.40
2019-03-01T07:06:11.799Z,18.37
2019-03-01T07:08:41.330Z,20.10
2019-03-01T07:11:10.602Z,19.50
2019-03-01T07:13:39.841Z,23.03
2019-03-01T07:16:09.096Z,20.27
2019-03-01T07:18:38.749Z,24.07
2019-03-01T07:21:07.990Z,18.53
2019-03-01T07:23:37.290Z,21.90
2019-03-01T07:26:06.484Z,20.97
2019-03-01T07:28:35.761Z,20.50
2019-03-01T07:31:06.989Z,24.17
2019-03-01T07:33:36.011Z,22.80
2019-03-01T07:36:05.248Z,20.80
2019-03-01T07:38:34.549Z,26.50
2019-03-01T07:41:04.030Z,24.47
2019-03-01T07:43:33.305Z,27.80
2019-03-01T07:46:02.879Z,27.23
2019-03-01T07:48:32.195Z,27.03
2019-03-01T07:51:02.504Z,31.77
2019-03-01T07:53:36.134Z,26.83
2019-03-01T07:56:13.650Z,26.73
2019-03-01T07:58:43.287Z,28.07
2019-03-01T08:01:12.895Z,29.57
2019-03-01T08:03:42.162Z,34.00
2019-03-01T08:06:13.467Z,43.23
2019-03-01T08:08:42.384Z,42.87
2019-03-01T08:11:14.011Z,47.10
2019-03-01T08:13:43.236Z,52.57
2019-03-01T08:16:12.531Z,65.80
2019-03-01T08:18:44.134Z,54.40
2019-03-01T08:21:14.895Z,74.57
2019-03-01T08:23:44.628Z,70.17
2019-03-01T08:26:14.399Z,72.00
2019-03-01T08:28:43.945Z,72.10
2019-03-01T08:31:13.230Z,73.53
2019-03-01T08:33:43.678Z,76.17
2019-03-01T08:36:13.823Z,81.27
2019-03-01T08:38:43.059Z,77.77
2019-03-01T08:41:12.353Z,88.23
2019-03-01T08:43:44.720Z,86.73
2019-03-01T08:46:12.767Z,84.37
2019-03-01T08:48:42.387Z,89.87
2019-03-01T08:51:11.646Z,85.77
2019-03-01T08:53:41.151Z,96.07
2019-03-01T08:56:10.899Z,97.10
2019-03-01T08:58:42.532Z,102.80
2019-03-01T09:01:13.484Z,96.77
2019-03-01T09:03:46.566Z,83.03
2019-03-01T09:06:15.831Z,87.97
2019-03-01T09:08:46.243Z,96.63
2019-03-01T09:11:16.387Z,88.50
2019-03-01T09:13:45.611Z,98.90
2019-03-01T09:16:14.929Z,102.30
2019-03-01T09:18:46.593Z,100.87
2019-03-01T09:21:15.548Z,105.73
2019-03-01T09:23:48.038Z,89.63
2019-03-01T09:26:16.703Z,106.47
2019-03-01T09:28:47.177Z,102.77
2019-03-01T09:31:17.901Z,82.33
2019-03-01T09:33:47.170Z,88.50
2019-03-01T09:39:47.062Z,76.23
2019-03-01T09:42:16.399Z,104.27
2019-03-01T09:44:45.652Z,101.23
2019-03-01T09:47:14.905Z,101.83
2019-03-01T09:50:03.355Z,104.10
2019-03-01T09:52:32.975Z,97.33
2019-03-01T09:55:02.872Z,98.27
2019-03-01T09:57:32.517Z,88.80
2019-03-01T10:00:01.793Z,92.20
2019-03-01T10:02:31.031Z,85.30
2019-03-01T10:05:00.638Z,83.70
2019-03-01T10:07:49.926Z,79.77
2019-03-01T10:10:21.585Z,63.30
2019-03-01T10:12:50.844Z,92.77
2019-03-01T10:15:20.111Z,117.37
2019-03-01T10:17:49.339Z,115.23
2019-03-01T10:20:18.645Z,79.10
2019-03-01T10:22:47.855Z,98.53
2019-03-01T10:25:17.211Z,108.70
2019-03-01T10:27:46.532Z,107.00
2019-03-01T10:30:20.623Z,101.47
2019-03-01T10:32:49.843Z,73.13
2019-03-01T10:35:19.056Z,67.17
2019-03-01T10:37:48.275Z,50.17
2019-03-01T10:40:19.095Z,45.33
2019-03-01T10:42:48.884Z,81.00
2019-03-01T10:45:20.635Z,66.47
2019-03-01T10:47:49.865Z,61.60
2019-03-01T10:50:19.665Z,61.90
2019-03-01T11:01:35.047Z,75.23
2019-03-01T11:14:16.977Z,79.80
2019-03-01T11:21:10.929Z,68.97
2019-03-01T12:25:10.752Z,46.27
2019-03-01T12:27:40.082Z,41.47
2019-03-01T12:30:12.615Z,40.17
2019-03-01T12:32:42.173Z,44.03
2019-03-01T12:35:11.554Z,54.07
2019-03-01T12:37:41.313Z,44.60
2019-03-01T12:40:30.730Z,40.53
2019-03-01T12:42:59.983Z,48.17
2019-03-01T12:45:29.269Z,53.13
2019-03-01T12:47:58.531Z,48.03
2019-03-01T12:50:27.844Z,44.17
2019-03-01T12:52:57.735Z,45.27
2019-03-01T12:55:26.978Z,48.63
2019-03-01T13:00:51.177Z,46.03
2019-03-01T13:03:20.841Z,51.20
2019-03-01T13:05:50.174Z,57.23
2019-03-01T13:08:19.806Z,59.20
2019-03-01T13:10:49.059Z,60.07
2019-03-01T13:13:18.376Z,52.30
2019-03-01T13:15:49.624Z,62.83
2019-03-01T13:18:18.847Z,69.90
2019-03-01T13:21:09.701Z,56.47
2019-03-01T13:23:40.486Z,65.13
2019-03-01T13:26:28.158Z,77.63
2019-03-01T13:28:57.735Z,69.27
2019-03-01T13:31:26.947Z,70.50
2019-03-01T13:33:56.769Z,84.83
2019-03-01T13:36:26.041Z,82.20
2019-03-01T13:38:55.327Z,80.93
2019-03-01T13:41:25.377Z,77.43
2019-03-01T13:43:56.219Z,78.83
2019-03-01T13:46:29.953Z,71.80
2019-03-01T13:48:57.384Z,66.17
2019-03-01T13:51:26.660Z,72.23
2019-03-01T13:53:55.931Z,79.47
2019-03-01T13:57:04.806Z,66.00
2019-03-01T13:59:37.566Z,81.93
2019-03-01T14:05:17.067Z,96.20
2019-03-01T14:10:24.494Z,67.80
2019-03-01T14:12:54.142Z,60.77
2019-03-01T14:18:33.377Z,64.73
2019-03-01T14:21:03.969Z,62.60
2019-03-01T14:23:34.008Z,56.33
2019-03-01T14:26:03.531Z,54.73
2019-03-01T14:28:33.354Z,53.87
2019-03-01T14:31:03.996Z,58.93
2019-03-01T14:33:34.367Z,48.97
2019-03-01T14:36:03.829Z,35.63
2019-03-01T14:38:33.167Z,39.63
2019-03-01T14:41:02.452Z,37.50
2019-03-01T14:43:32.036Z,42.93
2019-03-01T14:46:01.788Z,41.27
2019-03-01T14:48:31.677Z,31.33
2019-03-01T14:51:01.375Z,38.33
2019-03-01T14:56:34.837Z,33.53
2019-03-01T14:59:24.727Z,37.37
2019-03-01T15:02:04.212Z,45.50
2019-03-01T15:04:54.388Z,40.83
2019-03-01T15:07:27.923Z,49.57
2019-03-01T15:09:57.173Z,43.37
2019-03-01T15:12:27.277Z,44.60
2019-03-01T15:14:56.554Z,43.07
2019-03-01T15:17:25.780Z,36.83
2019-03-01T15:19:55.328Z,37.27
2019-03-01T15:22:27.525Z,32.83
2019-03-01T15:24:56.874Z,29.77
2019-03-01T15:27:44.998Z,22.90
2019-03-01T15:30:14.672Z,20.87
2019-03-01T15:32:43.889Z,21.87
2019-03-01T15:35:13.152Z,20.03
2019-03-01T15:37:42.383Z,23.77
2019-03-01T15:40:11.687Z,26.67
2019-03-01T15:42:40.922Z,27.93
2019-03-01T15:45:10.560Z,26.17
2019-03-01T15:47:40.102Z,29.93
2019-03-01T15:50:10.088Z,35.67
2019-03-01T15:52:39.369Z,32.50
2019-03-01T15:55:11.796Z,38.57
2019-03-01T15:57:39.793Z,50.27
2019-03-01T16:00:31.009Z,59.00
2019-03-01T16:03:00.290Z,55.37
2019-03-01T16:05:29.857Z,53.37
2019-03-01T16:07:59.142Z,50.07
2019-03-01T16:10:28.336Z,38.47
2019-03-01T16:12:57.890Z,45.60
2019-03-01T16:15:27.739Z,36.23
2019-03-01T16:17:57.605Z,39.07
2019-03-01T16:20:28.602Z,40.70
2019-03-01T16:22:59.105Z,33.87
2019-03-01T16:25:28.313Z,40.00
2019-03-01T16:27:57.905Z,46.97
2019-03-01T16:30:27.120Z,40.50
2019-03-01T16:32:56.385Z,41.10
2019-03-01T16:35:25.650Z,45.50
2019-03-01T16:40:32.262Z,40.13
2019-03-01T16:43:01.511Z,46.53
2019-03-01T16:45:31.020Z,43.07
2019-03-01T16:48:00.996Z,49.37
2019-03-01T16:50:31.295Z,51.80
2019-03-01T16:53:04.291Z,62.73
2019-03-01T16:55:50.859Z,58.03
2019-03-01T16:58:20.110Z,49.30
2019-03-01T17:00:50.697Z,58.20
2019-03-01T17:03:20.365Z,54.27
2019-03-01T17:14:47.801Z,47.77
2019-03-01T17:17:17.027Z,44.97
2019-03-01T17:19:47.272Z,48.03
2019-03-01T17:22:36.577Z,48.17
2019-03-01T17:25:06.457Z,44.10
2019-03-01T17:27:36.720Z,44.10
2019-03-01T17:30:31.080Z,47.50
2019-03-01T17:33:01.429Z,45.33
2019-03-01T17:35:30.673Z,46.43
2019-03-01T17:37:59.939Z,43.90
2019-03-01T17:40:32.427Z,44.47
2019-03-01T17:43:00.860Z,47.03
2019-03-01T17:45:30.459Z,44.67
2019-03-01T17:47:59.707Z,42.17
2019-03-01T17:50:48.601Z,41.37
2019-03-01T17:53:20.411Z,56.70
2019-03-01T17:55:49.815Z,54.60
2019-03-01T17:58:19.072Z,54.43
2019-03-01T18:00:48.681Z,88.33
2019-03-01T18:03:37.016Z,44.33
2019-03-01T18:06:06.310Z,48.90
2019-03-01T18:08:35.829Z,42.67
2019-03-01T18:11:26.395Z,42.47
2019-03-01T18:13:56.848Z,42.00
2019-03-01T18:16:27.192Z,46.20
2019-03-01T18:18:56.776Z,46.80
2019-03-01T18:21:25.999Z,43.70
2019-03-01T18:23:55.547Z,44.70
2019-03-01T18:26:24.808Z,42.37
2019-03-01T18:29:13.474Z,45.63
2019-03-01T18:31:43.097Z,46.30
2019-03-01T18:34:12.432Z,49.23
2019-03-01T18:36:41.725Z,59.40
2019-03-01T18:39:12.113Z,66.43
2019-03-01T18:41:41.561Z,55.77
2019-03-01T18:44:10.764Z,50.03
2019-03-01T18:46:40.645Z,49.37
2019-03-01T18:49:10.171Z,46.73
2019-03-01T18:51:43.287Z,47.33
2019-03-01T18:54:10.729Z,45.83
2019-03-01T18:56:40.439Z,46.80
2019-03-01T18:59:09.688Z,47.37
2019-03-01T19:01:39.310Z,44.37
2019-03-01T19:04:08.815Z,43.63
2019-03-01T19:06:57.260Z,42.70
2019-03-01T19:09:26.552Z,45.03
2019-03-01T19:11:57.225Z,48.47
2019-03-01T19:14:46.753Z,47.07
2019-03-01T19:17:16.002Z,44.83
2019-03-01T19:19:45.258Z,44.87
2019-03-01T19:22:36.166Z,43.80
2019-03-01T19:25:05.420Z,39.80
2019-03-01T19:27:34.971Z,45.50
2019-03-01T19:30:05.085Z,46.93
2019-03-01T19:32:54.464Z,41.03
2019-03-01T19:35:28.294Z,47.17
2019-03-01T19:37:54.802Z,42.90
2019-03-01T19:40:24.507Z,42.77
2019-03-01T19:42:53.767Z,40.30
2019-03-01T19:45:29.738Z,46.23
2019-03-01T19:48:02.993Z,45.37
2019-03-01T19:50:30.806Z,81.87
2019-03-01T20:28:07.672Z,18.43
